createdAt,value
2022-11-26T00:00:32.723Z,100751.41
2022-11-26T00:05:34.275Z,100749.25
2022-11-26T00:10:36.449Z,100749.94
2022-11-26T00:15:38.138Z,100757.56
2022-11-26T00:20:40.163Z,100757.25
2022-11-26T00:25:44.723Z,100752.28
2022-11-26T00:30:46.337Z,100758.84
2022-11-26T00:35:50.277Z,100768.19
2022-11-26T00:40:51.874Z,100765.56
2022-11-26T00:45:53.490Z,100770.47
2022-11-26T00:50:55.128Z,100779.09
2022-11-26T00:55:56.683Z,100777.75
2022-11-26T01:01:00.173Z,100778.25
2022-11-26T01:06:01.894Z,100770.56
2022-11-26T01:11:05.037Z,100766.91
2022-11-26T01:16:29.789Z,100775.66
2022-11-26T01:21:31.981Z,100776.47
2022-11-26T01:26:44.291Z,100784.41
2022-11-26T01:31:46.122Z,100788.06
2022-11-26T01:36:47.731Z,100784.88
2022-11-26T01:41:57.562Z,100786.78
2022-11-26T01:47:00.529Z,100789.53
2022-11-26T01:52:11.984Z,100780.25
2022-11-26T01:57:18.785Z,100785.31
2022-11-26T02:02:23.191Z,100777.47
2022-11-26T02:07:24.851Z,100786.38
2022-11-26T02:12:26.799Z,100792.00
2022-11-26T02:17:39.476Z,100802.72
2022-11-26T02:22:49.781Z,100800.81
2022-11-26T02:27:57.123Z,100806.16
2022-11-26T02:33:20.156Z,100802.56
2022-11-26T02:38:24.578Z,100804.91
2022-11-26T02:43:26.732Z,100800.56
2022-11-26T02:48:34.223Z,100804.59
2022-11-26T02:53:37.631Z,100800.81
2022-11-26T02:58:39.749Z,100807.84
2022-11-26T03:03:47.017Z,100812.03
2022-11-26T03:08:49.116Z,100811.88
2022-11-26T03:13:50.667Z,100812.53
2022-11-26T03:18:52.250Z,100815.41
2022-11-26T03:23:53.809Z,100829.53
2022-11-26T03:28:55.361Z,100832.88
2022-11-26T03:33:56.962Z,100837.44
2022-11-26T03:38:58.538Z,100835.69
2022-11-26T03:44:00.100Z,100842.03
2022-11-26T03:49:01.674Z,100842.78
2022-11-26T03:54:03.549Z,100845.41
2022-11-26T03:59:05.387Z,100849.97
2022-11-26T04:04:07.046Z,100842.63
2022-11-26T04:09:08.733Z,100845.25
2022-11-26T04:14:10.379Z,100845.16
2022-11-26T04:19:12.047Z,100855.81
2022-11-26T04:24:13.684Z,100856.19
2022-11-26T04:29:15.241Z,100854.16
2022-11-26T04:34:16.815Z,100851.97
2022-11-26T04:39:18.361Z,100871.38
2022-11-26T04:44:20.001Z,100871.16
2022-11-26T04:49:21.605Z,100875.19
2022-11-26T04:54:23.365Z,100881.16
2022-11-26T04:59:25.003Z,100889.69
2022-11-26T05:04:27.932Z,100886.69
2022-11-26T05:09:29.545Z,100893.31
2022-11-26T05:14:31.145Z,100895.72
2022-11-26T05:19:32.787Z,100895.38
2022-11-26T05:24:34.355Z,100905.00
2022-11-26T05:29:35.950Z,100907.38
2022-11-26T05:34:37.749Z,100912.91
2022-11-26T05:39:39.492Z,100922.38
2022-11-26T05:44:41.300Z,100928.84
2022-11-26T05:49:43.007Z,100933.03
2022-11-26T05:54:44.600Z,100935.31
2022-11-26T05:59:49.113Z,100941.63
2022-11-26T06:04:50.653Z,100935.47
2022-11-26T06:09:52.207Z,100945.03
2022-11-26T06:14:53.754Z,100955.28
2022-11-26T06:19:55.317Z,100956.16
2022-11-26T06:24:56.895Z,100961.31
2022-11-26T06:29:58.440Z,100967.53
2022-11-26T06:35:00.012Z,100974.56
2022-11-26T06:40:01.994Z,100980.25
2022-11-26T06:45:03.839Z,100986.19
2022-11-26T06:50:10.583Z,100990.28
2022-11-26T06:55:12.523Z,101002.63
2022-11-26T07:00:14.370Z,101005.78
2022-11-26T07:05:15.963Z,101013.59
2022-11-26T07:10:17.795Z,101026.97
2022-11-26T07:15:19.402Z,101025.75
2022-11-26T07:20:21.097Z,101032.88
2022-11-26T07:25:22.753Z,101037.38
2022-11-26T07:30:24.317Z,101043.53
2022-11-26T07:35:25.965Z,101049.94
2022-11-26T07:40:27.572Z,101045.81
2022-11-26T07:45:29.122Z,101053.34
2022-11-26T07:50:31.238Z,101059.81
2022-11-26T07:55:32.762Z,101061.47
2022-11-26T08:00:34.348Z,101074.19
2022-11-26T08:05:35.931Z,101075.59
2022-11-26T08:10:38.081Z,101072.28
2022-11-26T08:15:39.635Z,101081.16
2022-11-26T08:20:41.199Z,101087.78
2022-11-26T08:26:06.193Z,101091.81
2022-11-26T08:31:07.104Z,101094.56
2022-11-26T08:36:10.045Z,101098.41
2022-11-26T08:41:14.955Z,101106.59
2022-11-26T08:46:16.737Z,101109.56
2022-11-26T08:51:18.479Z,101119.06
2022-11-26T08:56:20.286Z,101117.66
2022-11-26T09:01:24.955Z,101125.41
2022-11-26T09:06:29.238Z,101129.13
2022-11-26T09:11:32.337Z,101143.75
2022-11-26T09:16:34.104Z,101142.16
2022-11-26T09:21:36.472Z,101137.41
2022-11-26T09:26:38.425Z,101148.00
2022-11-26T09:31:54.938Z,101150.69
2022-11-26T09:37:02.416Z,101147.25
2022-11-26T09:42:24.529Z,101156.56
2022-11-26T09:47:38.717Z,101147.06
2022-11-26T09:52:48.276Z,101166.69
2022-11-26T09:57:54.399Z,101158.28
2022-11-26T10:02:57.717Z,101163.91
2022-11-26T10:08:04.331Z,101162.38
2022-11-26T10:13:19.445Z,101164.41
2022-11-26T10:18:37.724Z,101174.41
2022-11-26T10:23:57.836Z,101172.94
2022-11-26T10:29:17.845Z,101176.81
2022-11-26T10:34:29.851Z,101188.34
2022-11-26T10:39:32.924Z,101178.38
2022-11-26T10:44:40.590Z,101199.56
2022-11-26T10:49:42.498Z,101189.13
2022-11-26T10:54:45.231Z,101186.13
2022-11-26T10:59:53.450Z,101188.44
2022-11-26T11:04:57.959Z,101191.44
2022-11-26T11:10:19.695Z,101206.84
2022-11-26T11:15:33.842Z,101200.44
2022-11-26T11:20:39.179Z,101212.97
2022-11-26T11:25:45.973Z,101216.19
2022-11-26T11:31:05.048Z,101221.38
2022-11-26T11:36:19.036Z,101221.84
2022-11-26T11:41:35.945Z,101230.03
2022-11-26T11:46:46.702Z,101233.28
2022-11-26T11:52:25.728Z,101239.06
2022-11-26T11:57:39.491Z,101250.88
2022-11-26T12:02:55.068Z,101251.69
2022-11-26T12:08:22.833Z,101242.03
2022-11-26T12:13:26.832Z,101262.78
2022-11-26T12:18:48.035Z,101263.53
2022-11-26T12:24:03.194Z,101268.22
2022-11-26T12:29:14.858Z,101278.31
2022-11-26T12:34:33.618Z,101279.50
2022-11-26T12:39:43.045Z,101257.69
2022-11-26T12:44:49.699Z,101270.13
2022-11-26T12:50:23.244Z,101268.22
2022-11-26T12:55:48.888Z,101263.41
2022-11-26T13:00:54.603Z,101257.53
2022-11-26T13:06:14.589Z,101267.91
2022-11-26T13:11:29.977Z,101276.66
2022-11-26T13:16:45.273Z,101276.84
2022-11-26T13:21:56.045Z,101289.97
2022-11-26T13:27:16.082Z,101288.72
2022-11-26T13:32:29.539Z,101295.22
2022-11-26T13:38:01.774Z,101300.53
2022-11-26T13:43:22.801Z,101299.63
2022-11-26T13:48:53.326Z,101304.53
2022-11-26T13:54:17.919Z,101312.00
2022-11-26T13:59:28.302Z,101324.91
2022-11-26T14:04:33.479Z,101325.22
2022-11-26T14:09:47.334Z,101341.63
2022-11-26T14:14:50.357Z,101332.94
2022-11-26T14:19:52.137Z,101339.91
2022-11-26T14:25:12.364Z,101343.25
2022-11-26T14:30:20.987Z,101347.44
2022-11-26T14:35:34.610Z,101339.31
2022-11-26T14:40:38.556Z,101350.06
2022-11-26T14:45:40.721Z,101348.97
2022-11-26T14:50:43.211Z,101364.28
2022-11-26T14:55:46.079Z,101373.81
2022-11-26T15:01:03.921Z,101374.59
2022-11-26T15:06:05.722Z,101381.47
2022-11-26T15:11:08.139Z,101382.28
2022-11-26T15:16:53.985Z,101383.88
2022-11-26T15:21:56.457Z,101390.63
2022-11-26T15:26:58.009Z,101393.47
2022-11-26T15:31:59.753Z,101402.81
2022-11-26T15:37:01.346Z,101403.38
2022-11-26T15:42:22.559Z,101404.66
2022-11-26T15:47:27.738Z,101407.38
2022-11-26T15:52:32.936Z,101412.16
2022-11-26T15:57:40.961Z,101404.69
2022-11-26T16:02:44.116Z,101413.69
2022-11-26T16:08:21.625Z,101408.81
2022-11-26T16:13:28.176Z,101404.41
2022-11-26T16:18:54.038Z,101410.44
2022-11-26T16:24:02.960Z,101410.94
2022-11-26T16:29:09.950Z,101418.00
2022-11-26T16:34:11.806Z,101421.41
2022-11-26T16:39:15.229Z,101425.19
2022-11-26T16:44:16.802Z,101421.63
2022-11-26T16:49:18.408Z,101431.13
2022-11-26T16:54:19.964Z,101426.78
2022-11-26T16:59:28.116Z,101433.16
2022-11-26T17:04:29.718Z,101438.53
2022-11-26T17:09:31.313Z,101444.19
2022-11-26T17:14:32.905Z,101439.38
2022-11-26T17:19:34.452Z,101442.72
2022-11-26T17:24:39.731Z,101445.81
2022-11-26T17:29:42.970Z,101445.94
2022-11-26T17:34:45.780Z,101438.84
2022-11-26T17:39:47.534Z,101452.53
2022-11-26T17:44:50.354Z,101450.63
2022-11-26T17:49:52.702Z,101452.44
2022-11-26T17:54:54.303Z,101463.94
2022-11-26T17:59:56.700Z,101460.47
2022-11-26T18:04:58.269Z,101464.75
2022-11-26T18:09:59.906Z,101463.28
2022-11-26T18:15:02.132Z,101472.94
2022-11-26T18:20:04.021Z,101477.34
2022-11-26T18:25:05.791Z,101470.94
2022-11-26T18:30:08.073Z,101479.00
2022-11-26T18:35:10.470Z,101475.63
2022-11-26T18:40:17.097Z,101472.38
2022-11-26T18:45:18.661Z,101480.31
2022-11-26T18:50:20.329Z,101479.41
2022-11-26T18:55:21.893Z,101479.25
2022-11-26T19:00:23.630Z,101484.63
2022-11-26T19:05:25.179Z,101498.31
2022-11-26T19:10:26.833Z,101496.28
2022-11-26T19:15:28.649Z,101495.91
2022-11-26T19:20:30.215Z,101501.06
2022-11-26T19:25:31.895Z,101504.75
2022-11-26T19:30:33.847Z,101505.63
2022-11-26T19:35:39.640Z,101508.38
2022-11-26T19:40:41.190Z,101525.72
2022-11-26T19:45:42.742Z,101525.63
2022-11-26T19:50:44.830Z,101530.03
2022-11-26T19:55:56.992Z,101541.00
2022-11-26T20:00:58.692Z,101543.13
2022-11-26T20:06:06.081Z,101546.38
2022-11-26T20:11:09.028Z,101542.81
2022-11-26T20:16:15.167Z,101548.09
2022-11-26T20:21:20.332Z,101541.13
2022-11-26T20:26:27.948Z,101532.63
2022-11-26T20:31:30.302Z,101546.88
2022-11-26T20:36:32.083Z,101552.03
2022-11-26T20:41:34.570Z,101550.13
2022-11-26T20:46:36.694Z,101543.84
2022-11-26T20:51:38.841Z,101547.31
2022-11-26T20:56:40.460Z,101550.88
2022-11-26T21:01:42.173Z,101555.28
2022-11-26T21:06:44.302Z,101555.25
2022-11-26T21:11:45.858Z,101555.38
2022-11-26T21:16:48.657Z,101554.59
2022-11-26T21:21:50.227Z,101554.19
2022-11-26T21:26:51.771Z,101557.88
2022-11-26T21:31:53.586Z,101556.63
2022-11-26T21:36:55.137Z,101560.88
2022-11-26T21:41:56.709Z,101556.22
2022-11-26T21:46:59.448Z,101553.72
2022-11-26T21:52:01.022Z,101560.75
2022-11-26T21:57:02.600Z,101554.84
2022-11-26T22:02:06.161Z,101553.59
2022-11-26T22:07:07.777Z,101553.72
2022-11-26T22:12:11.331Z,101549.47
2022-11-26T22:17:12.891Z,101544.22
2022-11-26T22:22:14.522Z,101553.97
2022-11-26T22:27:16.087Z,101552.13
2022-11-26T22:32:17.655Z,101556.53
2022-11-26T22:37:19.699Z,101550.50
2022-11-26T22:42:21.343Z,101549.72
2022-11-26T22:47:22.898Z,101549.56
2022-11-26T22:52:24.443Z,101545.88
2022-11-26T22:57:26.006Z,101551.75
2022-11-26T23:02:28.278Z,101543.38
2022-11-26T23:07:29.919Z,101545.38
2022-11-26T23:12:31.501Z,101545.50
2022-11-26T23:17:33.068Z,101542.13
2022-11-26T23:22:34.640Z,101535.78
2022-11-26T23:27:36.193Z,101540.53
2022-11-26T23:32:37.729Z,101543.13
2022-11-26T23:37:39.892Z,101541.38
2022-11-26T23:42:41.497Z,101540.41
2022-11-26T23:47:43.036Z,101541.00
2022-11-26T23:52:44.590Z,101544.00
2022-11-26T23:57:46.145Z,101538.72
